Time;durP1;ratioP1;P1;durP2;ratioP2;P2;SDS_P1;SDS_P2;PMS_P1;PMS_P2;Temp;Humidity;BMP_temperature;BMP_pressure;BME280_temperature;BME280_humidity;BME280_pressure;Samples;Min_cycle;Max_cycle;Signal;HPM_P1;HPM_P2
2022/03/20 00:10:54;;;;;;;38.88;20.30;;;-3.90;1.00;;;-3.23;79.62;102130.53;5026087;23;105123;-86
2022/03/20 00:23:01;;;;;;;34.80;18.58;;;-4.10;1.00;;;-3.29;79.32;102125.84;4826962;29;119805;-87
2022/03/20 02:15:20;;;;;;;32.90;18.20;;;-3.50;1.00;;;-3.31;80.54;102125.19;4782401;29;129531;-87
2022/03/20 02:27:39;;;;;;;39.85;19.90;;;-4.00;1.00;;;-3.55;81.30;102120.50;4788066;29;119923;-89
2022/03/20 02:31:32;;;;;;;36.63;19.15;;;-4.20;1.00;;;-3.63;82.50;102119.47;4788689;29;130458;-87
2022/03/20 03:16:37;;;;;;;31.13;14.38;;;-4.00;1.00;;;-3.59;81.14;102082.00;4762527;29;119472;-89
2022/03/20 03:19:18;;;;;;;30.75;14.82;;;-4.00;1.00;;;-3.59;80.34;102082.81;4769068;29;118809;-91
2022/03/20 04:08:47;;;;;;;20.60;11.37;;;-3.30;1.00;;;-3.46;77.70;102077.09;4648510;30;120366;-92
2022/03/20 04:11:19;;;;;;;24.23;11.55;;;-3.30;1.00;;;-3.35;76.85;102084.84;4634849;30;120199;-88
2022/03/20 04:14:08;;;;;;;23.17;10.65;;;-3.20;1.00;;;-3.23;76.30;102084.56;4649876;30;128472;-89
2022/03/20 04:20:37;;;;;;;21.55;11.38;;;-3.30;1.00;;;-3.21;76.03;102083.44;4685735;29;118452;-89
2022/03/20 04:29:28;;;;;;;26.63;13.73;;;-3.40;1.00;;;-3.18;75.59;102096.41;4742879;29;129894;-90
2022/03/20 04:32:14;;;;;;;25.05;13.13;;;-3.40;1.00;;;-3.01;75.24;102101.78;4752835;29;120208;-93
2022/03/20 04:34:43;;;;;;;28.35;14.40;;;-3.40;1.00;;;-2.97;75.67;102096.00;4758823;29;118994;-88
2022/03/20 04:37:14;;;;;;;26.95;13.70;;;-3.40;1.00;;;-3.05;75.60;102106.59;4765564;29;129310;-91
2022/03/20 04:40:01;;;;;;;24.75;13.25;;;-3.40;1.00;;;-3.20;76.35;102108.16;4767546;29;128852;-90
2022/03/20 04:42:30;;;;;;;25.40;13.13;;;-3.40;1.00;;;-3.09;76.44;102113.19;4748949;29;117869;-89
2022/03/20 04:45:00;;;;;;;21.77;12.50;;;-3.30;1.00;;;-2.92;75.78;102112.28;4772159;29;118731;-85
2022/03/20 04:59:34;;;;;;;33.50;18.55;;;-3.10;1.00;;;-2.08;71.82;102116.94;4766613;29;130582;-91
2022/03/20 05:02:15;;;;;;;26.13;15.07;;;-3.10;1.00;;;-2.03;71.41;102117.25;4749572;29;127804;-86
2022/03/20 05:04:44;;;;;;;22.90;12.77;;;-2.90;1.00;;;-1.95;71.70;102119.94;4752538;29;119896;-88
2022/03/20 05:07:28;;;;;;;24.60;12.75;;;-2.80;1.00;;;-1.87;71.01;102124.44;4749954;29;119411;-86
2022/03/20 05:15:32;;;;;;;21.42;12.52;;;-2.70;1.00;;;-1.58;71.36;102131.94;4746856;29;119561;-91
2022/03/20 05:18:02;;;;;;;25.77;13.25;;;-2.60;1.00;;;-1.46;70.65;102119.97;4747712;29;118388;-90
2022/03/20 05:27:48;;;;;;;25.95;12.68;;;-2.30;1.00;;;-1.01;68.62;102138.22;4755102;29;119540;-91
2022/03/20 05:30:44;;;;;;;22.08;12.00;;;-2.10;1.00;;;-0.83;67.54;102138.84;4758928;29;120027;-93
2022/03/20 05:33:29;;;;;;;24.77;12.50;;;-2.00;1.00;;;-0.69;67.77;102139.16;4762040;29;129813;-91
2022/03/20 05:39:25;;;;;;;28.52;15.18;;;-1.70;1.00;;;-0.48;67.83;102134.06;4768442;29;119073;-92
2022/03/20 05:42:09;;;;;;;26.73;14.80;;;-1.60;1.00;;;-0.68;67.34;102140.81;4738780;29;118964;-85
2022/03/20 05:44:55;;;;;;;32.78;15.45;;;-1.50;1.00;;;-0.62;66.49;102142.81;4715822;29;129749;-90
2022/03/20 05:47:24;;;;;;;24.23;13.82;;;-1.40;1.00;;;-0.37;66.29;102152.34;4715690;29;129098;-89
2022/03/20 05:49:54;;;;;;;23.08;13.68;;;-1.30;1.00;;;-0.24;65.49;102145.63;4744026;29;118537;-92
2022/03/20 05:52:27;;;;;;;26.17;13.93;;;-1.20;1.00;;;-0.06;64.20;102143.53;4759546;29;118871;-87
2022/03/20 05:55:03;;;;;;;25.83;12.20;;;-1.00;1.00;;;-0.10;64.83;102136.88;4773445;29;129125;-88
2022/03/20 06:00:33;;;;;;;23.23;13.65;;;-0.80;1.00;;;0.38;63.52;102154.59;4793509;29;119852;-92
2022/03/20 06:03:02;;;;;;;23.42;13.55;;;-0.70;1.00;;;0.64;63.21;102155.03;4762851;29;118883;-91
2022/03/20 06:05:40;;;;;;;22.80;12.75;;;-0.50;1.00;;;0.88;62.35;102155.81;4777680;29;129315;-90
2022/03/20 06:08:21;;;;;;;23.30;12.48;;;-0.40;1.00;;;1.05;61.39;102157.31;4766375;29;129700;-85
2022/03/20 06:11:01;;;;;;;20.08;12.05;;;-0.20;1.00;;;1.34;60.79;102166.38;4768370;29;119149;-91
2022/03/20 06:13:37;;;;;;;25.63;14.73;;;0.00;1.00;;;1.53;59.88;102162.31;4764043;29;119621;-88
2022/03/20 06:16:14;;;;;;;24.85;14.90;;;0.10;1.00;;;1.59;59.22;102158.91;4749892;29;128984;-91
2022/03/20 06:18:47;;;;;;;23.80;13.70;;;0.30;1.00;;;1.79;59.31;102164.50;4786948;29;129139;-91
2022/03/20 06:21:18;;;;;;;23.45;13.73;;;0.40;1.00;;;1.80;58.99;102166.13;4803553;29;119167;-85
2022/03/20 06:28:02;;;;;;;24.50;12.88;;;0.60;1.00;;;2.09;57.96;102164.44;4792486;29;128264;-89
2022/03/20 06:31:00;;;;;;;23.08;13.40;;;0.80;1.00;;;2.37;58.24;102163.69;4785392;29;129098;-92
2022/03/20 06:33:47;;;;;;;22.35;13.07;;;1.00;1.00;;;2.53;56.93;102159.09;4786348;29;118846;-94
2022/03/20 06:36:16;;;;;;;20.85;13.25;;;1.10;1.00;;;2.55;56.64;102162.41;4768582;29;118050;-91
2022/03/20 06:43:04;;;;;;;32.92;14.50;;;1.30;1.00;;;2.76;54.97;102169.56;4800643;29;130953;-92
2022/03/20 06:45:41;;;;;;;36.47;14.68;;;1.40;1.00;;;2.87;55.75;102161.84;4783839;29;117860;-92
2022/03/20 06:48:59;;;;;;;26.65;14.40;;;1.40;1.00;;;3.06;55.41;102160.31;4779596;29;119532;-92
2022/03/20 06:51:31;;;;;;;29.85;14.40;;;1.70;1.00;;;3.49;54.77;102155.81;4799520;29;130105;-91
2022/03/20 06:54:09;;;;;;;22.65;14.10;;;1.90;1.00;;;3.69;53.20;102158.59;4769332;29;129902;-93
2022/03/20 06:56:42;;;;;;;24.48;13.77;;;2.10;1.00;;;3.84;53.07;102161.97;4763331;29;119090;-91
2022/03/20 06:59:34;;;;;;;21.52;13.43;;;2.30;1.00;;;3.99;51.45;102150.22;4764789;29;119578;-91
2022/03/20 07:02:07;;;;;;;24.70;14.20;;;2.40;1.00;;;3.92;51.20;102155.56;4779639;29;128849;-88
2022/03/20 07:05:16;;;;;;;22.42;13.73;;;2.50;1.00;;;4.08;51.51;102149.84;4752608;29;129127;-90
2022/03/20 07:16:54;;;;;;;25.75;13.73;;;3.10;1.00;;;4.71;50.45;102145.16;4779553;29;130478;-90
2022/03/20 07:37:22;;;;;;;22.05;13.63;;;4.30;1.00;;;6.01;46.45;102133.59;4763299;29;119108;-94
2022/03/20 07:39:55;;;;;;;24.65;13.63;;;4.40;1.00;;;6.18;46.15;102134.72;4763497;29;119008;-89
2022/03/20 07:42:29;;;;;;;23.85;14.00;;;4.60;1.00;;;6.16;46.22;102130.63;4778584;29;129030;-89
2022/03/20 07:48:35;;;;;;;25.35;13.07;;;4.70;1.00;;;6.51;45.40;102132.84;4785668;29;118726;-92
2022/03/20 07:51:43;;;;;;;22.73;13.38;;;4.90;1.00;;;6.77;45.33;102131.81;4781609;29;118682;-90
2022/03/20 07:58:15;;;;;;;21.60;13.77;;;5.30;1.00;;;7.12;44.32;102117.75;4751584;29;128908;-91
2022/03/20 08:01:20;;;;;;;22.67;14.60;;;5.50;1.00;;;7.34;43.64;102123.56;4779327;29;120224;-93
2022/03/20 08:04:40;;;;;;;21.70;13.40;;;5.70;1.00;;;7.52;42.96;102123.50;4783800;29;118686;-91
2022/03/20 08:11:25;;;;;;;23.15;14.13;;;5.90;1.00;;;7.18;43.73;102131.19;4787436;29;129166;-90
2022/03/20 08:14:30;;;;;;;23.23;12.75;;;6.00;1.00;;;7.19;44.00;102124.72;4805147;29;119366;-87
2022/03/20 08:21:17;;;;;;;20.58;12.35;;;6.20;1.00;;;7.10;43.83;102126.06;4782277;29;129258;-91
2022/03/20 08:30:46;;;;;;;18.80;12.65;;;6.60;1.00;;;7.46;43.12;102129.81;4766084;29;119111;-89
2022/03/20 08:37:37;;;;;;;24.00;14.80;;;6.80;1.00;;;8.25;42.89;102121.69;4748546;29;130290;-89
2022/03/20 08:47:12;;;;;;;21.80;13.40;;;7.10;1.00;;;8.00;41.25;102110.22;4768443;29;129967;-90
2022/03/20 08:50:02;;;;;;;17.30;11.32;;;7.10;1.00;;;8.10;41.76;102099.66;4737223;29;129017;-91
2022/03/20 08:59:19;;;;;;;20.52;12.38;;;7.60;1.00;;;9.06;39.70;102104.13;4779387;29;129699;-90
2022/03/20 09:02:29;;;;;;;21.67;12.40;;;7.70;1.00;;;8.39;39.27;102105.25;4781492;29;128751;-90
2022/03/20 09:05:35;;;;;;;17.88;11.75;;;7.50;1.00;;;8.30;40.59;102104.75;4784034;29;119616;-90
2022/03/20 09:11:48;;;;;;;19.48;12.25;;;7.50;1.00;;;8.50;39.97;102109.88;4781577;29;127976;-89
2022/03/20 09:15:40;;;;;;;19.50;12.05;;;7.60;1.00;;;9.02;38.49;102100.22;4780045;29;129589;-92
2022/03/20 09:19:00;;;;;;;18.85;11.38;;;7.80;1.00;;;8.99;37.47;102098.81;4779005;29;120532;-87
2022/03/20 09:22:01;;;;;;;19.50;11.10;;;7.90;1.00;;;9.03;38.26;102093.75;4768145;29;120244;-89
2022/03/20 09:24:43;;;;;;;17.30;11.05;;;8.00;1.00;;;8.82;38.28;102104.97;4778429;29;131229;-88
2022/03/20 09:27:19;;;;;;;19.02;12.00;;;8.10;1.00;;;9.02;38.49;102100.22;4779225;29;128870;-88
2022/03/20 09:37:46;;;;;;;20.23;10.80;;;7.90;1.00;;;8.80;38.41;102100.81;4778916;29;130927;-92
2022/03/20 09:40:53;;;;;;;18.00;11.63;;;8.00;1.00;;;8.88;37.91;102103.19;4780814;29;129084;-89
2022/03/20 09:43:30;;;;;;;19.55;11.18;;;7.90;1.00;;;8.98;37.79;102099.91;4795828;29;118737;-88
2022/03/20 09:52:28;;;;;;;22.17;12.93;;;8.40;1.00;;;9.12;38.41;102092.34;4780261;29;129176;-92
2022/03/20 10:07:02;;;;;;;15.77;10.95;;;8.40;1.00;;;9.63;37.66;102077.09;4779974;29;130223;-91
2022/03/20 10:10:29;;;;;;;18.80;11.25;;;8.50;1.00;;;9.35;37.27;102080.63;4767812;29;120925;-90
2022/03/20 10:13:18;;;;;;;18.58;12.25;;;8.60;1.00;;;9.75;38.08;102078.94;4764740;29;118644;-90
2022/03/20 10:15:53;;;;;;;20.35;13.52;;;8.80;1.00;;;9.80;37.16;102087.16;4763030;29;128107;-90
2022/03/20 10:18:45;;;;;;;17.02;10.80;;;8.80;1.00;;;10.00;36.68;102074.00;4751536;29;130064;-92
2022/03/20 10:25:34;;;;;;;18.48;11.32;;;9.00;1.00;;;9.84;36.37;102072.06;4750186;29;118971;-92
2022/03/20 10:28:26;;;;;;;18.60;10.85;;;8.80;1.00;;;9.94;36.24;102071.41;4779489;29;130483;-90
2022/03/20 10:31:04;;;;;;;18.45;12.13;;;8.80;1.00;;;10.01;36.90;102072.91;4769878;29;128896;-87
2022/03/20 10:33:38;;;;;;;16.85;11.07;;;8.80;1.00;;;9.82;36.13;102069.59;4780703;29;118929;-90
2022/03/20 10:36:16;;;;;;;19.60;11.80;;;8.80;1.00;;;10.28;35.91;102066.03;4749218;29;118944;-91
2022/03/20 10:41:52;;;;;;;;;;;8.90;1.00;;;9.91;36.75;102051.03;4763998;29;128844;-88
2022/03/20 10:44:35;;;;;;;19.95;13.23;;;9.10;1.00;;;9.82;37.50;102052.50;4763085;29;120089;-90
2022/03/20 10:47:13;;;;;;;19.10;11.48;;;9.10;1.00;;;9.81;37.73;102045.44;4748198;29;119058;-90
2022/03/20 10:49:54;;;;;;;16.23;10.50;;;9.10;1.00;;;10.18;36.61;102040.34;4776249;29;129634;-89
2022/03/20 10:52:45;;;;;;;18.30;11.38;;;9.30;1.00;;;9.98;36.58;102048.97;4761180;29;128770;-90
2022/03/20 10:55:17;;;;;;;15.98;10.77;;;9.20;1.00;;;9.91;37.09;102042.91;4777228;29;119703;-91
2022/03/20 10:57:47;;;;;;;15.43;10.45;;;9.10;1.00;;;10.17;37.14;102043.31;4733239;29;118364;-90
2022/03/20 11:00:24;;;;;;;16.40;10.65;;;9.10;1.00;;;10.50;36.63;102028.13;4777020;29;132075;-90
2022/03/20 11:03:06;;;;;;;19.23;13.40;;;9.30;1.00;;;10.27;35.78;102038.06;4761594;29;127930;-90
2022/03/20 11:05:40;;;;;;;15.15;11.60;;;9.30;1.00;;;10.43;35.56;102026.38;4762481;29;120054;-90
2022/03/20 11:08:11;;;;;;;17.67;10.90;;;9.20;1.00;;;10.87;35.66;102025.63;4777250;29;118253;-88
2022/03/20 11:10:48;;;;;;;15.90;11.15;;;9.40;1.00;;;11.38;34.07;102020.00;4776524;29;129339;-89
2022/03/20 11:13:25;;;;;;;16.80;10.65;;;9.60;1.00;;;11.38;34.01;102017.28;4761040;29;129517;-90
2022/03/20 11:16:05;;;;;;;20.65;10.57;;;9.60;1.00;;;10.67;35.60;102020.75;4777700;29;119614;-93
2022/03/20 11:18:45;;;;;;;17.80;11.10;;;9.40;1.00;;;10.52;36.04;102015.94;4763521;29;118556;-92
2022/03/20 11:21:17;;;;;;;17.80;10.98;;;9.50;1.00;;;10.64;36.21;102004.97;4763595;29;131615;-90
2022/03/20 11:23:54;;;;;;;20.50;11.10;;;9.50;1.00;;;10.38;36.71;102007.31;4765325;29;128965;-89
2022/03/20 11:26:28;;;;;;;17.58;10.98;;;9.40;1.00;;;10.47;36.26;102009.59;4750683;29;119201;-91
2022/03/20 11:29:07;;;;;;;16.60;11.05;;;9.40;1.00;;;10.25;36.85;102002.19;4750769;29;118707;-91
2022/03/20 11:31:49;;;;;;;19.13;11.55;;;9.50;1.00;;;10.26;37.69;102003.84;4732469;29;130661;-91
2022/03/20 11:34:28;;;;;;;19.10;10.82;;;9.50;1.00;;;10.51;36.17;102003.44;4746694;29;129054;-89
2022/03/20 11:37:09;;;;;;;20.60;12.68;;;9.60;1.00;;;10.47;37.01;102005.00;4746340;29;119745;-89
2022/03/20 11:40:11;;;;;;;15.80;11.30;;;9.70;1.00;;;10.05;36.86;101995.41;4777288;29;118763;-91
2022/03/20 11:42:50;;;;;;;23.98;10.85;;;9.40;1.00;;;10.19;37.88;101989.63;4746339;29;128204;-91
2022/03/20 11:45:36;;;;;;;18.60;11.68;;;9.50;1.00;;;10.48;36.54;101989.53;4746248;29;129184;-90
2022/03/20 11:48:42;;;;;;;16.33;10.68;;;9.60;1.00;;;10.49;37.02;101974.91;4763377;29;119139;-88
2022/03/20 11:51:18;;;;;;;18.10;10.73;;;9.50;1.00;;;10.38;36.71;101969.31;4761060;29;117923;-90
2022/03/20 11:54:18;;;;;;;15.15;10.45;;;9.60;1.00;;;10.34;36.49;101961.91;4761690;29;129794;-91
2022/03/20 11:56:52;;;;;;;17.13;10.88;;;9.50;1.00;;;10.08;37.44;101948.78;4745943;29;128286;-89
2022/03/20 11:59:49;;;;;;;18.00;12.18;;;9.50;1.00;;;10.37;36.64;101948.66;4746578;29;119838;-88
2022/03/20 12:07:14;;;;;;;21.13;12.32;;;9.60;1.00;;;10.23;36.84;101939.22;4762158;29;129943;-90
2022/03/20 12:10:08;;;;;;;16.98;11.40;;;9.70;1.00;;;10.32;36.97;101942.34;4746315;29;129278;-89
2022/03/20 12:13:07;;;;;;;14.77;10.48;;;9.70;1.00;;;11.00;36.55;101937.53;4747735;29;118977;-90
2022/03/20 12:15:53;;;;;;;19.50;11.45;;;9.90;1.00;;;11.28;35.58;101927.47;4733746;29;119209;-91
2022/03/20 12:22:14;;;;;;;21.42;12.68;;;10.20;1.00;;;11.81;33.78;101914.88;4761353;29;129310;-93
2022/03/20 12:25:05;;;;;;;15.80;11.05;;;10.20;1.00;;;11.46;34.28;101910.78;4764407;29;119338;-90
2022/03/20 12:28:32;;;;;;;19.67;12.52;;;10.20;1.00;;;11.06;36.26;101920.16;4747103;29;118803;-90
2022/03/20 12:39:23;;;;;;;15.57;10.55;;;10.00;1.00;;;10.60;37.09;101906.88;4749959;29;118544;-92
2022/03/20 12:42:36;;;;;;;20.60;10.85;;;10.00;1.00;;;10.71;37.14;101910.56;4758771;29;119020;-89
2022/03/20 12:45:35;;;;;;;19.88;11.93;;;10.10;1.00;;;10.48;36.62;101918.94;4751622;29;129831;-89
2022/03/20 12:48:25;;;;;;;25.83;14.90;;;9.80;1.00;;;10.58;36.60;101913.63;4760661;29;129225;-92
2022/03/20 12:51:18;;;;;;;20.55;13.35;;;9.80;1.00;;;10.75;36.70;101908.13;4731692;29;118320;-91
2022/03/20 12:53:52;;;;;;;23.48;13.48;;;10.00;1.00;;;10.68;37.08;101902.91;4761012;29;116885;-91
2022/03/20 13:00:23;;;;;;;19.13;12.02;;;10.10;1.00;;;11.79;35.17;101891.72;4757858;29;129395;-88
2022/03/20 13:03:35;;;;;;;16.80;11.60;;;10.30;1.00;;;11.91;34.56;101886.91;4746136;29;117775;-90
2022/03/20 13:06:47;;;;;;;19.35;12.15;;;10.40;1.00;;;11.19;35.47;101901.81;4745973;29;119689;-90
2022/03/20 13:16:38;;;;;;;17.92;12.07;;;10.10;1.00;;;11.59;35.05;101878.78;4740734;29;120229;-90
2022/03/20 13:23:31;;;;;;;18.45;11.55;;;10.50;1.00;;;10.84;36.19;101873.22;4745337;29;131026;-91
2022/03/20 13:30:44;;;;;;;19.88;11.95;;;10.10;1.00;;;10.67;36.97;101868.66;4746786;29;119334;-94
2022/03/20 13:34:03;;;;;;;19.15;11.70;;;10.00;1.00;;;10.65;37.22;101865.41;4750197;29;118462;-89
2022/03/20 13:43:56;;;;;;;19.60;12.70;;;10.10;1.00;;;10.92;37.06;101853.72;4756077;29;119045;-89
2022/03/20 13:54:17;;;;;;;21.63;12.00;;;10.00;1.00;;;10.90;37.00;101839.59;4745360;29;127670;-89
2022/03/20 13:57:47;;;;;;;16.20;10.60;;;10.10;1.00;;;10.72;36.95;101840.75;4734062;29;117952;-91
2022/03/20 14:22:21;;;;;;;16.27;10.10;;;10.10;1.00;;;10.52;38.52;101803.34;4763985;29;128583;-91
2022/03/20 14:42:34;;;;;;;18.05;11.95;;;9.90;1.00;;;10.48;38.98;101777.78;4764751;29;119509;-92
2022/03/20 14:45:04;;;;;;;18.40;11.73;;;9.90;1.00;;;10.43;38.90;101775.84;4748656;29;127904;-91
2022/03/20 14:47:34;;;;;;;15.95;11.40;;;9.90;1.00;;;10.55;38.24;101768.38;4747461;29;128985;-91
2022/03/20 14:53:33;;;;;;;21.88;11.73;;;10.40;1.00;;;10.87;37.71;101764.84;4763398;29;118974;-90
2022/03/20 14:59:24;;;;;;;17.45;12.52;;;11.30;1.00;;;11.46;37.02;101765.84;4777570;29;129083;-90
2022/03/20 15:12:28;;;;;;;19.47;11.73;;;9.60;1.00;;;9.93;39.27;101758.66;4779608;29;129436;-90
2022/03/20 15:15:48;;;;;;;19.40;11.68;;;9.50;1.00;;;10.91;38.29;101743.44;4766543;29;119779;-91
2022/03/20 15:22:21;;;;;;;20.33;12.60;;;11.50;1.00;;;14.37;31.85;101741.75;4753864;29;129510;-93
2022/03/20 15:29:45;;;;;;;20.63;13.25;;;11.50;1.00;;;15.57;29.94;101731.47;4741994;29;120036;-90
2022/03/20 15:33:08;;;;;;;21.83;13.95;;;11.60;1.00;;;16.52;28.68;101721.47;4716694;29;119121;-90
2022/03/20 15:35:55;;;;;;;23.13;16.25;;;11.90;1.00;;;16.45;29.22;101726.50;4720532;29;129426;-91
2022/03/20 15:38:33;;;;;;;19.05;13.82;;;12.10;1.00;;;16.24;28.78;101727.94;4707545;29;128956;-92
2022/03/20 15:41:11;;;;;;;18.20;13.55;;;12.00;1.00;;;16.58;28.95;101727.72;4731599;29;119293;-92
2022/03/20 15:44:08;;;;;;;19.65;15.05;;;12.10;1.00;;;16.24;29.53;101717.78;4712466;29;119302;-88
2022/03/20 15:47:18;;;;;;;22.02;15.13;;;11.80;1.00;;;15.68;30.04;101719.31;4725647;29;130301;-91
2022/03/20 15:50:07;;;;;;;18.05;13.52;;;11.70;1.00;;;15.22;30.20;101717.06;4741358;29;128185;-93
2022/03/20 15:52:52;;;;;;;21.85;14.30;;;11.30;1.00;;;15.23;30.57;101724.16;4740258;29;119682;-91
2022/03/20 15:58:12;;;;;;;17.35;12.30;;;10.90;1.00;;;14.37;31.44;101717.16;4725752;29;129600;-89
2022/03/20 16:00:51;;;;;;;19.60;13.43;;;10.80;1.00;;;13.93;32.44;101722.59;4721360;29;129176;-89
2022/03/20 16:03:42;;;;;;;18.75;13.23;;;10.50;1.00;;;13.28;33.22;101717.84;4735597;29;118698;-89
2022/03/20 16:06:15;;;;;;;18.88;14.43;;;10.10;1.00;;;12.11;34.92;101716.69;4724868;29;118373;-92
2022/03/20 16:08:50;;;;;;;22.00;16.52;;;9.60;1.00;;;11.56;35.91;101716.16;4696828;29;128556;-91
2022/03/20 16:11:38;;;;;;;25.77;18.40;;;9.20;1.00;;;10.68;37.37;101720.16;4726612;29;129739;-90
2022/03/20 16:14:09;;;;;;;35.67;25.40;;;8.80;1.00;;;10.02;39.03;101726.47;4727679;29;118768;-91
2022/03/20 16:16:48;;;;;;;37.35;25.90;;;8.40;1.00;;;9.33;40.57;101725.88;4745781;29;118860;-90
2022/03/20 16:19:30;;;;;;;24.45;19.23;;;8.00;1.00;;;8.68;42.19;101718.31;4763498;29;129445;-91
2022/03/20 16:22:14;;;;;;;21.35;12.23;;;7.70;1.00;;;8.04;43.44;101719.25;4752694;29;130116;-93
2022/03/20 16:28:35;;;;;;;21.52;14.00;;;7.30;1.00;;;7.57;44.55;101712.06;4765941;29;120082;-91
2022/03/20 16:31:57;;;;;;;21.63;13.68;;;7.20;1.00;;;7.46;44.96;101713.72;4768631;29;130435;-92
2022/03/20 16:34:40;;;;;;;24.90;15.25;;;7.20;1.00;;;7.42;45.00;101711.75;4768976;29;127599;-90
2022/03/20 16:37:45;;;;;;;24.80;15.05;;;7.20;1.00;;;7.36;45.31;101711.63;4768936;29;118088;-92
2022/03/20 16:41:25;;;;;;;21.65;13.88;;;7.00;1.00;;;7.14;45.66;101703.31;4779245;29;118799;-92
2022/03/20 16:54:48;;;;;;;29.30;19.52;;;6.30;1.00;;;6.61;48.14;101696.09;4761126;29;120042;-92
2022/03/20 17:00:41;;;;;;;33.97;20.05;;;5.90;1.00;;;6.34;49.06;101691.06;4767044;29;129489;-92
2022/03/20 17:03:26;;;;;;;49.88;33.42;;;5.70;1.00;;;6.24;49.57;101693.50;4765431;29;117576;-92
2022/03/20 17:06:01;;;;;;;55.50;36.20;;;5.50;1.00;;;6.06;50.87;101684.41;4751591;29;118102;-91
2022/03/20 17:08:36;;;;;;;56.67;34.20;;;5.30;1.00;;;5.96;50.95;101689.47;4764121;29;129397;-93
2022/03/20 17:15:22;;;;;;;48.92;30.10;;;4.90;1.00;;;5.64;51.89;101692.34;4773695;29;118603;-93
2022/03/20 17:21:44;;;;;;;41.20;26.52;;;4.90;1.00;;;5.46;52.39;101676.19;5035475;27;102751;-67
2022/03/20 17:24:12;;;;;;;32.58;21.80;;;4.60;1.00;;;5.37;52.49;101687.22;5035727;27;116299;-64
2022/03/20 17:26:41;;;;;;;34.92;21.55;;;4.50;1.00;;;5.27;52.73;101686.94;5037821;27;130618;-64
2022/03/20 17:29:10;;;;;;;35.22;22.73;;;4.40;1.00;;;5.22;53.18;101694.88;5040444;27;129705;-66
2022/03/20 17:31:39;;;;;;;48.40;27.55;;;4.30;1.00;;;5.15;53.62;101686.03;5037300;27;118596;-66
2022/03/20 17:34:07;;;;;;;48.80;26.60;;;4.20;1.00;;;5.06;54.10;101690.03;5040324;27;116578;-68
2022/03/20 17:36:36;;;;;;;32.58;19.70;;;4.10;1.00;;;5.00;54.15;101684.50;5036803;27;129399;-66
2022/03/20 17:39:09;;;;;;;47.58;23.95;;;4.00;1.00;;;4.97;54.30;101687.63;5016214;28;129563;-64
2022/03/20 17:41:40;;;;;;;37.72;20.40;;;4.00;1.00;;;4.91;54.39;101688.50;5017224;27;119172;-66
2022/03/20 17:44:09;;;;;;;38.33;22.75;;;4.10;1.00;;;4.86;54.80;101691.88;5023804;27;115763;-64
2022/03/20 17:46:39;;;;;;;32.45;18.83;;;4.00;1.00;;;4.77;54.99;101697.72;5022934;27;129782;-65
2022/03/20 17:49:08;;;;;;;37.78;22.02;;;3.90;1.00;;;4.68;55.31;101689.91;5026751;27;129482;-65
2022/03/20 17:51:37;;;;;;;55.33;28.55;;;3.80;1.00;;;4.62;55.82;101687.28;5042314;27;118998;-66
2022/03/20 17:54:08;;;;;;;38.20;21.40;;;3.70;1.00;;;4.58;55.35;101692.28;5017402;27;115728;-66
2022/03/20 17:56:37;;;;;;;37.08;21.42;;;3.90;1.00;;;4.58;55.05;101689.59;5036885;27;129596;-66
2022/03/20 18:01:51;;;;;;;40.13;21.48;;;3.70;1.00;;;4.48;55.29;101689.25;5037840;27;118944;-66
2022/03/20 18:09:56;;;;;;;39.15;20.45;;;3.30;1.00;;;4.19;57.12;101691.50;5037507;27;129856;-66
2022/03/20 18:12:25;;;;;;;38.38;21.75;;;3.20;1.00;;;4.13;57.22;101692.34;5035524;27;118664;-66
2022/03/20 18:14:54;;;;;;;32.00;19.73;;;3.20;1.00;;;4.07;57.69;101693.22;5035505;27;115950;-66
2022/03/20 18:17:29;;;;;;;33.03;18.67;;;3.10;1.00;;;3.95;58.01;101699.22;5034965;27;129993;-66
2022/03/20 18:19:58;;;;;;;28.17;18.58;;;3.00;1.00;;;3.90;58.20;101693.69;5034036;27;129544;-67
2022/03/20 18:22:30;;;;;;;27.10;16.63;;;2.90;1.00;;;3.87;58.38;101699.47;5034030;27;118578;-67
2022/03/20 18:25:01;;;;;;;27.70;15.90;;;2.80;1.00;;;3.72;58.82;101690.84;5035370;27;115945;-66
2022/03/20 18:27:31;;;;;;;32.97;18.55;;;2.80;1.00;;;3.73;59.07;101687.16;5024518;27;129809;-66
2022/03/20 18:30:01;;;;;;;30.88;18.63;;;2.80;1.00;;;3.66;59.31;101689.00;5017521;28;129250;-66
2022/03/20 18:32:32;;;;;;;28.58;18.00;;;2.70;1.00;;;3.58;59.87;101685.53;5007217;28;118081;-66
2022/03/20 18:35:02;;;;;;;27.83;17.58;;;2.70;1.00;;;3.54;60.08;101684.31;4988406;28;115141;-65
2022/03/20 18:37:33;;;;;;;31.05;17.98;;;2.80;1.00;;;3.51;60.31;101694.66;5001867;28;130384;-67
2022/03/20 18:40:06;;;;;;;28.58;17.40;;;2.80;1.00;;;3.48;60.58;101690.53;5020816;28;129851;-67
2022/03/20 18:42:39;;;;;;;29.88;17.23;;;2.80;1.00;;;3.39;60.91;101686.41;5004042;28;118410;-67
2022/03/20 18:45:11;;;;;;;35.63;19.50;;;2.70;1.00;;;3.32;61.42;101691.81;4988457;28;115364;-66
2022/03/20 18:47:44;;;;;;;35.00;21.77;;;2.60;1.00;;;3.21;62.07;101687.91;5000814;28;130033;-65
2022/03/20 18:50:15;;;;;;;44.63;26.48;;;2.50;1.00;;;3.13;62.48;101682.75;5003115;28;130104;-66
2022/03/20 18:52:48;;;;;;;40.50;24.60;;;2.40;1.00;;;3.09;62.64;101684.19;5020929;28;118837;-66
2022/03/20 18:55:25;;;;;;;41.33;23.52;;;2.30;1.00;;;3.03;62.62;101693.06;5002800;28;115990;-66
2022/03/20 18:57:58;;;;;;;38.63;22.52;;;2.20;1.00;;;2.95;62.95;101687.91;5002006;28;130292;-65
2022/03/20 19:00:29;;;;;;;35.50;19.85;;;2.10;1.00;;;2.92;62.85;101685.66;5002804;28;129202;-66
2022/03/20 19:02:58;;;;;;;31.23;19.40;;;2.00;1.00;;;2.85;62.75;101681.13;5004399;28;117999;-66
2022/03/20 19:05:30;;;;;;;35.95;19.27;;;2.00;1.00;;;2.83;62.76;101683.16;5002706;28;116314;-66
2022/03/20 19:07:59;;;;;;;31.58;19.45;;;1.80;1.00;;;2.81;62.49;101685.22;5003358;28;129457;-66
2022/03/20 19:10:31;;;;;;;29.88;18.63;;;1.70;1.00;;;2.72;63.10;101681.09;5003714;28;128597;-66
2022/03/20 19:13:01;;;;;;;34.63;19.85;;;1.70;1.00;;;2.69;63.22;101679.63;5002537;28;118229;-65
2022/03/20 19:15:32;;;;;;;31.17;19.58;;;1.60;1.00;;;2.64;63.34;101684.00;5020886;28;114792;-65
2022/03/20 19:18:01;;;;;;;29.40;18.60;;;1.60;1.00;;;2.57;63.15;101683.16;5004501;28;130102;-65
2022/03/20 19:20:29;;;;;;;32.33;19.30;;;1.50;1.00;;;2.47;64.25;101676.31;5007955;28;129890;-66
2022/03/20 19:22:59;;;;;;;34.00;18.08;;;1.40;1.00;;;2.43;64.18;101672.44;5006375;28;118919;-65
2022/03/20 19:25:29;;;;;;;29.40;17.33;;;1.40;1.00;;;2.35;64.69;101675.28;5003457;28;116669;-66
2022/03/20 19:28:00;;;;;;;30.40;17.30;;;1.30;1.00;;;2.33;64.82;101683.50;5001169;28;130929;-67
2022/03/20 19:30:29;;;;;;;30.45;17.95;;;1.30;1.00;;;2.27;65.40;101681.66;5003394;28;129497;-65
2022/03/20 19:32:58;;;;;;;28.08;17.98;;;1.20;1.00;;;2.29;65.28;101684.97;5007081;28;117391;-65
2022/03/20 19:41:02;;;;;;;29.30;16.63;;;1.20;1.00;;;2.16;65.67;101677.69;5003873;28;129546;-65
2022/03/20 19:43:30;;;;;;;29.58;16.33;;;1.30;1.00;;;2.21;65.34;101684.31;5000854;28;118457;-68
2022/03/20 19:45:59;;;;;;;28.23;15.95;;;1.30;1.00;;;2.19;65.53;101681.84;5003932;28;115278;-67
2022/03/20 19:48:28;;;;;;;33.58;17.88;;;1.30;1.00;;;2.14;66.09;101674.41;5001156;28;129918;-65
2022/03/20 19:50:59;;;;;;;30.90;16.30;;;1.30;1.00;;;2.13;66.11;101672.75;5000929;28;130065;-66
2022/03/20 19:53:29;;;;;;;38.35;17.17;;;1.40;1.00;;;2.09;66.70;101682.22;5001135;28;118885;-65
2022/03/20 19:56:00;;;;;;;30.30;17.50;;;1.30;1.00;;;2.07;66.77;101673.59;5003724;28;114614;-69
2022/03/20 19:58:32;;;;;;;36.75;18.77;;;1.30;1.00;;;2.08;67.36;101672.53;4987118;28;127923;-67
2022/03/20 20:01:00;;;;;;;33.28;18.02;;;1.40;1.00;;;2.09;67.31;101668.84;5005394;28;129109;-67
2022/03/20 20:03:30;;;;;;;36.50;18.27;;;1.50;1.00;;;2.11;67.23;101664.09;5004733;28;118551;-67
2022/03/20 20:05:59;;;;;;;32.38;15.85;;;1.50;1.00;;;2.10;67.50;101673.19;5003062;28;116228;-68